createdAt,value
2022-11-09T00:01:04.029Z,5.53
2022-11-09T00:03:30.868Z,4.28
2022-11-09T00:05:59.086Z,4.07
2022-11-09T00:08:27.307Z,3.30
2022-11-09T00:10:54.053Z,7.78
2022-11-09T00:13:21.569Z,4.75
2022-11-09T00:15:49.080Z,6.30
2022-11-09T00:18:15.895Z,8.90
2022-11-09T00:20:47.754Z,5.22
2022-11-09T00:23:16.685Z,5.38
2022-11-09T00:25:44.467Z,7.30
2022-11-09T00:28:11.672Z,3.25
2022-11-09T00:30:38.801Z,4.45
2022-11-09T00:33:05.543Z,3.78
2022-11-09T00:35:32.921Z,4.20
2022-11-09T00:37:59.714Z,4.95
2022-11-09T00:40:26.660Z,4.05
2022-11-09T00:42:53.516Z,6.70
2022-11-09T00:45:20.622Z,4.65
2022-11-09T00:47:47.350Z,5.43
2022-11-09T00:50:14.938Z,4.40
2022-11-09T00:52:42.016Z,4.95
2022-11-09T00:55:09.278Z,4.63
2022-11-09T00:57:36.741Z,4.63
2022-11-09T01:00:04.346Z,3.55
2022-11-09T01:02:31.339Z,5.25
2022-11-09T01:04:58.502Z,3.78
2022-11-09T01:07:25.430Z,5.32
2022-11-09T01:09:52.445Z,3.92
2022-11-09T01:12:19.874Z,3.83
2022-11-09T01:14:46.672Z,6.88
2022-11-09T01:17:13.339Z,3.65
2022-11-09T01:19:40.356Z,2.50
2022-11-09T01:22:07.162Z,3.40
2022-11-09T01:24:34.226Z,4.50
2022-11-09T01:27:01.241Z,4.10
2022-11-09T01:29:29.110Z,6.20
2022-11-09T01:31:56.165Z,5.97
2022-11-09T01:34:23.518Z,8.32
2022-11-09T01:36:54.618Z,4.72
2022-11-09T01:39:21.870Z,7.18
2022-11-09T01:41:49.284Z,6.25
2022-11-09T01:44:20.689Z,4.93
2022-11-09T01:46:56.135Z,4.65
2022-11-09T01:49:56.904Z,5.57
2022-11-09T01:52:30.762Z,4.00
2022-11-09T01:55:26.722Z,4.50
2022-11-09T01:58:01.375Z,5.03
2022-11-09T02:00:29.113Z,6.93
2022-11-09T02:02:59.550Z,4.35
2022-11-09T02:05:28.960Z,4.70
2022-11-09T02:07:56.639Z,5.53
2022-11-09T02:10:34.419Z,6.55
2022-11-09T02:13:02.781Z,7.85
2022-11-09T02:15:30.383Z,3.92
2022-11-09T02:17:57.296Z,7.75
2022-11-09T02:20:24.864Z,7.13
2022-11-09T02:22:51.799Z,5.78
2022-11-09T02:25:18.961Z,4.07
2022-11-09T02:27:46.546Z,7.25
2022-11-09T02:30:14.073Z,6.35
2022-11-09T02:32:41.486Z,5.65
2022-11-09T02:35:09.005Z,4.75
2022-11-09T02:37:40.359Z,4.60
2022-11-09T02:40:12.255Z,4.75
2022-11-09T02:42:39.146Z,4.78
2022-11-09T02:45:06.404Z,3.60
2022-11-09T02:47:33.260Z,5.22
2022-11-09T02:50:00.050Z,4.35
2022-11-09T02:52:26.957Z,5.57
2022-11-09T02:54:53.968Z,5.28
2022-11-09T02:57:20.802Z,5.38
2022-11-09T02:59:47.821Z,4.10
2022-11-09T03:02:14.520Z,5.68
2022-11-09T03:04:41.512Z,4.88
2022-11-09T03:07:08.507Z,7.32
2022-11-09T03:09:35.379Z,6.78
2022-11-09T03:12:25.527Z,4.00
2022-11-09T03:14:52.206Z,6.30
2022-11-09T03:17:18.959Z,4.47
2022-11-09T03:19:45.642Z,6.38
2022-11-09T03:22:12.717Z,4.43
2022-11-09T03:24:39.547Z,4.05
2022-11-09T03:27:06.372Z,4.63
2022-11-09T03:29:33.924Z,7.53
2022-11-09T03:32:00.942Z,7.13
2022-11-09T03:34:27.963Z,6.28
2022-11-09T03:36:54.773Z,6.78
2022-11-09T03:39:21.762Z,6.20
2022-11-09T03:41:48.761Z,3.85
2022-11-09T03:44:15.660Z,4.38
2022-11-09T03:46:42.529Z,5.10
2022-11-09T03:49:09.241Z,6.50
2022-11-09T03:51:36.077Z,4.13
2022-11-09T03:54:03.102Z,6.18
2022-11-09T03:56:29.750Z,4.35
2022-11-09T03:58:56.577Z,4.68
2022-11-09T04:01:24.127Z,4.18
2022-11-09T04:03:50.987Z,5.93
2022-11-09T04:06:17.705Z,5.97
2022-11-09T04:08:50.938Z,3.72
2022-11-09T04:11:17.953Z,5.77
2022-11-09T04:13:44.922Z,5.05
2022-11-09T04:16:11.818Z,5.72
2022-11-09T04:18:39.285Z,6.07
2022-11-09T04:21:06.159Z,6.45
2022-11-09T04:23:33.498Z,5.30
2022-11-09T04:26:00.235Z,3.63
2022-11-09T04:28:27.030Z,4.15
2022-11-09T04:30:53.694Z,4.90
2022-11-09T04:33:20.922Z,3.92
2022-11-09T04:35:47.925Z,4.90
2022-11-09T04:38:15.610Z,6.28
2022-11-09T04:40:42.582Z,6.00
2022-11-09T04:43:12.987Z,4.30
2022-11-09T04:45:40.714Z,5.60
2022-11-09T04:48:08.645Z,5.35
2022-11-09T04:50:35.425Z,5.63
2022-11-09T04:53:12.278Z,5.10
2022-11-09T04:55:40.574Z,3.80
2022-11-09T04:58:07.778Z,3.78
2022-11-09T05:00:35.181Z,6.85
2022-11-09T05:03:06.673Z,4.60
2022-11-09T05:05:34.728Z,5.30
2022-11-09T05:08:02.054Z,3.58
2022-11-09T05:10:29.207Z,5.68
2022-11-09T05:13:04.397Z,5.85
2022-11-09T05:15:31.446Z,5.45
2022-11-09T05:17:58.711Z,4.35
2022-11-09T05:20:26.872Z,5.05
2022-11-09T05:23:12.673Z,3.47
2022-11-09T05:25:39.482Z,3.22
2022-11-09T05:28:06.186Z,4.63
2022-11-09T05:30:32.884Z,3.42
2022-11-09T05:32:59.985Z,4.75
2022-11-09T05:35:26.672Z,3.65
2022-11-09T05:37:53.610Z,4.57
2022-11-09T05:40:20.844Z,3.88
2022-11-09T05:42:48.166Z,5.45
2022-11-09T05:48:05.334Z,8.35
2022-11-09T05:50:32.256Z,8.30
2022-11-09T05:53:00.882Z,5.65
2022-11-09T05:55:28.218Z,4.53
2022-11-09T05:57:55.260Z,6.03
2022-11-09T06:00:23.154Z,8.93
2022-11-09T06:02:49.953Z,4.55
2022-11-09T06:05:17.122Z,6.88
2022-11-09T06:07:45.641Z,5.75
2022-11-09T06:10:12.374Z,6.88
2022-11-09T06:12:39.367Z,5.32
2022-11-09T06:15:06.756Z,6.03
2022-11-09T06:17:33.422Z,5.60
2022-11-09T06:20:00.426Z,7.75
2022-11-09T06:22:28.210Z,5.40
2022-11-09T06:24:55.054Z,4.22
2022-11-09T06:27:21.831Z,9.10
2022-11-09T06:29:48.534Z,4.95
2022-11-09T06:32:15.426Z,4.95
2022-11-09T06:34:44.891Z,4.30
2022-11-09T06:37:11.916Z,4.13
2022-11-09T06:39:38.872Z,4.25
2022-11-09T06:42:05.636Z,5.30
2022-11-09T06:44:33.263Z,4.32
2022-11-09T06:46:59.953Z,6.10
2022-11-09T06:49:26.665Z,4.78
2022-11-09T06:51:53.546Z,4.28
2022-11-09T06:54:20.317Z,5.43
2022-11-09T06:56:47.036Z,4.72
2022-11-09T06:59:14.084Z,3.95
2022-11-09T07:01:41.090Z,4.55
2022-11-09T07:04:07.995Z,5.93
2022-11-09T07:06:34.723Z,4.32
2022-11-09T07:09:01.961Z,3.50
2022-11-09T07:11:28.838Z,5.60
2022-11-09T07:13:57.561Z,3.67
2022-11-09T07:16:24.885Z,9.43
2022-11-09T07:18:51.678Z,21.95
2022-11-09T07:21:18.964Z,14.65
2022-11-09T07:23:47.851Z,7.95
2022-11-09T07:26:15.546Z,7.82
2022-11-09T07:28:42.640Z,9.63
2022-11-09T07:31:10.043Z,7.60
2022-11-09T07:33:36.805Z,5.80
2022-11-09T07:36:05.601Z,10.60
2022-11-09T07:38:32.510Z,8.40
2022-11-09T07:41:02.611Z,6.43
2022-11-09T07:43:31.722Z,10.75
2022-11-09T07:45:59.394Z,6.28
2022-11-09T07:48:26.274Z,7.60
2022-11-09T07:50:53.196Z,6.95
2022-11-09T07:53:21.739Z,10.35
2022-11-09T07:55:57.463Z,5.10
2022-11-09T07:58:25.120Z,3.53
2022-11-09T08:00:51.849Z,5.93
2022-11-09T08:03:20.045Z,4.38
2022-11-09T08:05:46.955Z,5.53
2022-11-09T08:08:15.784Z,5.13
2022-11-09T08:10:44.022Z,5.47
2022-11-09T08:13:13.586Z,6.72
2022-11-09T08:15:41.867Z,5.10
2022-11-09T08:18:13.044Z,9.32
2022-11-09T08:20:39.941Z,6.57
2022-11-09T08:23:07.046Z,7.93
2022-11-09T08:25:35.733Z,7.00
2022-11-09T08:28:03.846Z,6.30
2022-11-09T08:30:31.338Z,2.13
2022-11-09T08:32:59.115Z,1.55
2022-11-09T08:35:27.012Z,1.23
2022-11-09T08:37:55.222Z,4.78
2022-11-09T08:40:26.216Z,4.13
2022-11-09T08:42:53.787Z,1.58
2022-11-09T08:45:21.637Z,1.27
2022-11-09T08:47:48.419Z,1.80
2022-11-09T08:50:16.018Z,1.50
2022-11-09T08:52:43.464Z,1.00
2022-11-09T08:55:10.489Z,0.98
2022-11-09T08:57:37.298Z,0.98
2022-11-09T09:00:05.467Z,2.45
2022-11-09T09:02:32.422Z,2.47
2022-11-09T09:05:00.007Z,1.25
2022-11-09T09:07:26.764Z,1.33
2022-11-09T09:09:53.938Z,1.38
2022-11-09T09:12:20.704Z,0.85
2022-11-09T09:14:48.346Z,0.80
2022-11-09T09:17:15.170Z,1.10
2022-11-09T09:19:45.967Z,2.28
2022-11-09T09:22:15.740Z,1.98
2022-11-09T09:24:42.774Z,1.83
2022-11-09T09:27:09.682Z,3.72
2022-11-09T09:29:36.475Z,1.58
2022-11-09T09:32:03.482Z,2.45
2022-11-09T09:34:30.562Z,1.73
2022-11-09T09:36:57.442Z,1.15
2022-11-09T09:39:24.833Z,5.07
2022-11-09T09:41:56.665Z,0.95
2022-11-09T09:44:30.124Z,1.25
2022-11-09T09:47:20.363Z,2.50
2022-11-09T09:49:56.755Z,2.75
2022-11-09T09:52:42.013Z,1.42
2022-11-09T09:55:39.525Z,2.05
2022-11-09T09:58:24.068Z,0.95
2022-11-09T10:00:55.255Z,1.95
2022-11-09T10:03:22.059Z,1.65
2022-11-09T10:06:05.520Z,1.77
2022-11-09T10:08:54.654Z,3.60
2022-11-09T10:12:13.848Z,1.98
2022-11-09T10:15:07.188Z,1.90
2022-11-09T10:18:15.047Z,1.88
2022-11-09T10:21:34.224Z,7.07
2022-11-09T10:25:18.506Z,3.08
2022-11-09T10:27:48.831Z,1.58
2022-11-09T10:30:18.402Z,3.17
2022-11-09T10:32:51.158Z,2.47
2022-11-09T10:35:24.850Z,1.48
2022-11-09T10:37:52.855Z,1.45
2022-11-09T10:40:52.168Z,3.50
2022-11-09T10:43:19.107Z,7.82
2022-11-09T10:45:46.387Z,1.48
2022-11-09T10:48:14.492Z,0.93
2022-11-09T10:50:54.659Z,1.55
2022-11-09T10:53:32.643Z,1.50
2022-11-09T10:56:33.001Z,1.75
2022-11-09T10:59:04.146Z,2.50
2022-11-09T11:01:37.952Z,2.70
2022-11-09T11:04:21.312Z,2.20
2022-11-09T11:06:48.009Z,2.28
2022-11-09T11:09:19.027Z,1.00
2022-11-09T11:11:45.758Z,2.47
2022-11-09T11:14:22.796Z,2.60
2022-11-09T11:16:52.704Z,1.67
2022-11-09T11:19:32.874Z,1.13
2022-11-09T11:22:32.441Z,2.83
2022-11-09T11:25:01.651Z,3.05
2022-11-09T11:28:00.926Z,3.53
2022-11-09T11:30:35.207Z,1.50
2022-11-09T11:35:50.832Z,2.35
2022-11-09T11:38:52.148Z,1.73
2022-11-09T11:41:48.533Z,1.45
2022-11-09T11:44:49.160Z,2.25
2022-11-09T11:48:10.830Z,1.45
2022-11-09T11:51:14.091Z,4.32
2022-11-09T11:54:14.501Z,0.90
2022-11-09T11:57:31.305Z,1.63
2022-11-09T12:00:11.248Z,3.53
2022-11-09T12:03:32.513Z,3.03
2022-11-09T12:06:12.435Z,1.52
2022-11-09T12:09:03.157Z,1.30
2022-11-09T12:18:29.546Z,0.75
2022-11-09T12:21:16.882Z,3.35
2022-11-09T12:24:25.215Z,1.13
2022-11-09T12:27:30.533Z,1.77
2022-11-09T12:30:05.782Z,1.30
2022-11-09T12:32:59.334Z,1.58
2022-11-09T12:35:39.923Z,2.25
2022-11-09T12:38:23.195Z,3.47
2022-11-09T12:41:11.233Z,2.45
2022-11-09T12:43:58.733Z,3.00
2022-11-09T12:46:31.577Z,1.25
2022-11-09T12:49:02.443Z,4.43
2022-11-09T12:51:29.234Z,3.25
2022-11-09T12:53:56.870Z,1.58
2022-11-09T12:56:27.880Z,3.20
2022-11-09T12:59:48.311Z,3.35
2022-11-09T13:02:34.397Z,2.63
2022-11-09T13:05:04.218Z,2.05
2022-11-09T13:07:52.158Z,3.28
2022-11-09T13:10:39.701Z,1.40
2022-11-09T13:13:32.923Z,1.50
2022-11-09T13:16:33.580Z,2.15
2022-11-09T13:19:03.256Z,3.45
2022-11-09T13:21:34.795Z,2.97
2022-11-09T13:24:50.544Z,6.13
2022-11-09T13:27:42.129Z,5.63
2022-11-09T13:30:45.097Z,4.75
2022-11-09T13:33:24.103Z,3.05
2022-11-09T13:36:16.021Z,1.67
2022-11-09T13:38:43.472Z,2.58
2022-11-09T13:41:51.262Z,2.05
2022-11-09T13:44:27.261Z,2.03
2022-11-09T13:46:54.612Z,2.55
2022-11-09T13:49:38.495Z,3.38
2022-11-09T13:52:05.254Z,2.40
2022-11-09T13:54:34.282Z,3.60
2022-11-09T13:57:06.697Z,2.00
2022-11-09T13:59:47.129Z,2.53
2022-11-09T14:02:26.064Z,2.40
2022-11-09T14:04:54.380Z,5.85
2022-11-09T14:07:26.514Z,6.25
2022-11-09T14:10:22.311Z,2.47
2022-11-09T14:13:35.596Z,3.58
2022-11-09T14:16:40.040Z,4.40
2022-11-09T14:22:35.323Z,3.42
2022-11-09T14:25:19.722Z,4.90
2022-11-09T14:27:57.144Z,4.55
2022-11-09T14:30:29.269Z,4.05
2022-11-09T14:32:57.869Z,3.15
2022-11-09T14:35:35.623Z,2.38
2022-11-09T14:38:15.616Z,2.95
2022-11-09T14:40:46.683Z,6.40
2022-11-09T14:43:29.428Z,3.42
2022-11-09T14:46:01.482Z,2.83
2022-11-09T14:48:29.647Z,5.78
2022-11-09T14:51:00.035Z,4.22
2022-11-09T14:53:32.764Z,6.07
2022-11-09T14:56:05.211Z,6.28
2022-11-09T14:58:34.380Z,4.57
2022-11-09T15:01:24.281Z,3.78
2022-11-09T15:04:14.429Z,4.88
2022-11-09T15:06:46.788Z,1.85
2022-11-09T15:09:28.337Z,5.25
2022-11-09T15:11:55.363Z,2.95
2022-11-09T15:14:31.615Z,4.40
2022-11-09T15:17:23.100Z,6.53
2022-11-09T15:19:58.939Z,11.00
2022-11-09T15:22:50.706Z,14.27
2022-11-09T15:25:20.659Z,14.15
2022-11-09T15:28:24.640Z,14.43
2022-11-09T15:31:16.085Z,7.20
2022-11-09T15:33:53.730Z,5.60
2022-11-09T15:36:34.147Z,7.68
2022-11-09T15:39:09.490Z,9.23
2022-11-09T15:41:37.269Z,5.68
2022-11-09T15:44:05.956Z,9.75
2022-11-09T15:46:37.043Z,5.50
2022-11-09T15:49:17.019Z,9.45
2022-11-09T15:51:44.989Z,7.70
2022-11-09T15:54:12.159Z,8.93
2022-11-09T15:56:38.930Z,4.45
2022-11-09T15:59:06.098Z,6.13
2022-11-09T16:01:33.145Z,5.65
2022-11-09T16:04:00.442Z,4.07
2022-11-09T16:06:27.731Z,5.32
2022-11-09T16:08:54.829Z,3.88
2022-11-09T16:11:21.600Z,8.90
2022-11-09T16:13:48.390Z,12.55
2022-11-09T16:16:15.943Z,8.32
2022-11-09T16:18:43.562Z,6.28
2022-11-09T16:21:16.212Z,3.33
2022-11-09T16:23:44.630Z,8.95
2022-11-09T16:26:14.082Z,8.25
2022-11-09T16:28:41.294Z,6.22
2022-11-09T16:31:08.456Z,6.90
2022-11-09T16:33:35.807Z,7.60
2022-11-09T16:36:06.536Z,14.82
2022-11-09T16:38:39.146Z,14.15
2022-11-09T16:41:06.270Z,14.02
2022-11-09T16:43:33.277Z,11.13
2022-11-09T16:46:00.256Z,9.63
2022-11-09T16:48:27.022Z,18.02
2022-11-09T16:50:53.915Z,12.10
2022-11-09T16:53:26.526Z,10.93
2022-11-09T16:55:53.989Z,7.15
2022-11-09T16:58:21.568Z,13.27
2022-11-09T17:01:11.667Z,9.82
2022-11-09T17:03:37.325Z,15.00
2022-11-09T17:06:04.614Z,6.63
2022-11-09T17:08:32.081Z,11.05
2022-11-09T17:10:58.848Z,17.75
2022-11-09T17:13:25.550Z,18.83
2022-11-09T17:15:53.556Z,17.13
2022-11-09T17:18:20.650Z,16.40
2022-11-09T17:20:49.892Z,14.77
2022-11-09T17:23:18.964Z,15.25
2022-11-09T17:25:57.136Z,14.93
2022-11-09T17:28:24.641Z,16.00
2022-11-09T17:30:51.678Z,13.25
2022-11-09T17:33:18.337Z,15.43
2022-11-09T17:35:45.437Z,11.20
2022-11-09T17:38:12.792Z,9.32
2022-11-09T17:40:39.627Z,7.32
2022-11-09T17:43:06.573Z,10.88
2022-11-09T17:45:35.104Z,7.97
2022-11-09T17:48:02.537Z,11.27
2022-11-09T17:50:29.298Z,10.07
2022-11-09T17:52:56.134Z,9.45
2022-11-09T17:55:23.592Z,17.15
2022-11-09T17:57:50.803Z,8.93
2022-11-09T18:00:18.886Z,10.63
2022-11-09T18:02:45.834Z,10.70
2022-11-09T18:05:14.174Z,11.15
2022-11-09T18:07:40.848Z,13.55
2022-11-09T18:10:08.093Z,32.78
2022-11-09T18:12:34.741Z,37.60
2022-11-09T18:15:02.301Z,55.33
2022-11-09T18:17:29.265Z,117.80
2022-11-09T18:19:56.017Z,24.45
2022-11-09T18:22:22.753Z,102.22
2022-11-09T18:24:49.437Z,176.45
2022-11-09T18:27:16.444Z,149.43
2022-11-09T18:29:43.516Z,100.90
2022-11-09T18:32:13.794Z,84.18
2022-11-09T18:34:40.916Z,133.02
2022-11-09T18:37:07.613Z,54.05
2022-11-09T18:39:34.539Z,30.80
2022-11-09T18:42:02.147Z,23.05
2022-11-09T18:44:29.161Z,15.82
2022-11-09T18:47:00.699Z,15.13
2022-11-09T18:49:30.652Z,7.57
2022-11-09T18:51:59.368Z,6.75
2022-11-09T18:54:26.369Z,6.88
2022-11-09T18:56:53.732Z,8.05
2022-11-09T18:59:20.541Z,7.35
2022-11-09T19:01:47.206Z,6.78
2022-11-09T19:04:19.347Z,7.93
2022-11-09T19:06:46.941Z,8.00
2022-11-09T19:09:30.242Z,12.10
2022-11-09T19:11:58.270Z,11.88
2022-11-09T19:14:25.948Z,10.90
2022-11-09T19:16:53.175Z,11.52
2022-11-09T19:19:20.544Z,9.55
2022-11-09T19:21:57.070Z,13.77
2022-11-09T19:24:25.725Z,9.43
2022-11-09T19:26:54.223Z,6.53
2022-11-09T19:29:21.789Z,8.05
2022-11-09T19:31:48.980Z,8.48
2022-11-09T19:34:18.306Z,6.68
2022-11-09T19:36:46.221Z,6.63
2022-11-09T19:39:16.690Z,6.65
2022-11-09T19:41:43.474Z,8.20
2022-11-09T19:44:12.984Z,9.05
2022-11-09T19:46:40.181Z,10.80
2022-11-09T19:49:07.687Z,14.30
2022-11-09T19:51:35.071Z,13.15
2022-11-09T19:54:03.204Z,15.38
2022-11-09T19:56:31.767Z,14.52
2022-11-09T19:59:00.350Z,13.60
2022-11-09T20:01:28.000Z,15.95
2022-11-09T20:03:56.849Z,12.13
2022-11-09T20:06:24.405Z,9.25
2022-11-09T20:08:52.379Z,8.30
2022-11-09T20:11:39.958Z,8.48
2022-11-09T20:14:08.033Z,9.23
2022-11-09T20:16:35.529Z,8.45
2022-11-09T20:19:03.819Z,8.40
2022-11-09T20:21:30.964Z,6.60
2022-11-09T20:23:58.502Z,6.70
2022-11-09T20:26:25.244Z,7.05
2022-11-09T20:28:53.612Z,6.88
2022-11-09T20:31:21.376Z,6.75
2022-11-09T20:33:48.798Z,7.22
2022-11-09T20:36:16.076Z,5.38
2022-11-09T20:38:43.019Z,7.28
2022-11-09T20:41:11.335Z,8.52
2022-11-09T20:43:38.759Z,6.15
2022-11-09T20:46:14.885Z,7.82
2022-11-09T20:48:57.597Z,6.30
2022-11-09T20:51:25.002Z,7.88
2022-11-09T20:53:51.958Z,8.25
2022-11-09T20:56:20.123Z,6.63
2022-11-09T20:58:47.467Z,4.57
2022-11-09T21:01:20.192Z,4.70
2022-11-09T21:03:47.845Z,7.32
2022-11-09T21:06:15.683Z,4.55
2022-11-09T21:08:50.643Z,6.07
2022-11-09T21:11:19.087Z,9.05
2022-11-09T21:13:50.489Z,7.55
2022-11-09T21:16:18.314Z,8.50
2022-11-09T21:18:45.214Z,15.15
2022-11-09T21:21:23.286Z,15.30
2022-11-09T21:24:08.750Z,12.63
2022-11-09T21:26:54.129Z,8.07
2022-11-09T21:29:42.558Z,11.57
2022-11-09T21:32:11.369Z,10.60
2022-11-09T21:34:38.459Z,8.27
2022-11-09T21:37:05.937Z,10.50
2022-11-09T21:39:32.823Z,13.70
2022-11-09T21:42:00.040Z,11.32
2022-11-09T21:44:31.261Z,13.57
2022-11-09T21:46:59.021Z,6.88
2022-11-09T21:49:25.733Z,10.52
2022-11-09T21:51:52.617Z,6.30
2022-11-09T21:54:20.182Z,7.57
2022-11-09T21:56:51.196Z,9.15
2022-11-09T21:59:18.007Z,11.85
2022-11-09T22:01:45.581Z,10.43
2022-11-09T22:04:12.431Z,12.77
2022-11-09T22:06:40.923Z,8.40
2022-11-09T22:09:12.955Z,9.93
2022-11-09T22:11:58.558Z,9.65
2022-11-09T22:14:43.896Z,8.73
2022-11-09T22:17:10.700Z,6.30
2022-11-09T22:19:57.195Z,6.38
2022-11-09T22:22:24.794Z,11.75
2022-11-09T22:24:51.478Z,7.25
2022-11-09T22:27:18.158Z,7.45
2022-11-09T22:29:45.305Z,7.47
2022-11-09T22:32:12.169Z,7.47
2022-11-09T22:34:39.081Z,11.77
2022-11-09T22:37:06.208Z,9.20
2022-11-09T22:39:33.016Z,7.70
2022-11-09T22:42:00.162Z,8.18
2022-11-09T22:44:26.946Z,9.85
2022-11-09T22:46:53.846Z,7.38
2022-11-09T22:49:20.567Z,8.27
2022-11-09T22:51:47.380Z,5.90
2022-11-09T22:54:14.211Z,7.10
2022-11-09T22:56:41.305Z,6.47
2022-11-09T22:59:08.271Z,7.03
2022-11-09T23:01:35.017Z,7.03
2022-11-09T23:04:02.336Z,6.95
2022-11-09T23:06:29.473Z,4.43
2022-11-09T23:08:56.530Z,4.57
2022-11-09T23:11:24.090Z,4.47
2022-11-09T23:13:55.176Z,4.97
2022-11-09T23:16:23.363Z,5.38
2022-11-09T23:18:55.998Z,4.05
2022-11-09T23:21:31.146Z,3.63
2022-11-09T23:24:00.876Z,3.47
2022-11-09T23:26:28.435Z,8.40
2022-11-09T23:28:55.565Z,4.15
2022-11-09T23:31:26.130Z,5.10
2022-11-09T23:33:54.784Z,5.28
2022-11-09T23:36:26.148Z,4.03
2022-11-09T23:38:53.271Z,3.28
2022-11-09T23:41:20.423Z,5.85
2022-11-09T23:43:49.721Z,6.57
2022-11-09T23:46:17.562Z,6.07
2022-11-09T23:48:44.566Z,6.90
2022-11-09T23:51:12.381Z,2.97
2022-11-09T23:53:39.586Z,6.60
2022-11-09T23:56:11.226Z,3.85
2022-11-09T23:58:38.487Z,4.13
